Time;durP1;ratioP1;P1;durP2;ratioP2;P2;SDS_P1;SDS_P2;PMS_P1;PMS_P2;Temp;Humidity;BMP_temperature;BMP_pressure;BME280_temperature;BME280_humidity;BME280_pressure;Samples;Min_cycle;Max_cycle;Signal;HPM_P1;HPM_P2
2023/04/25 00:01:43;;;;;;;12.85;10.95;;;;;;;11.41;86.28;95736.69;5074449;28;20131;-64
2023/04/25 00:04:11;;;;;;;9.65;8.73;;;;;;;11.40;86.18;95739.38;5074327;28;20135;-60
2023/04/25 00:06:38;;;;;;;20.58;18.45;;;;;;;11.32;86.17;95730.19;5074340;28;20044;-63
2023/04/25 00:09:07;;;;;;;17.38;9.98;;;;;;;11.34;86.91;95727.47;5074349;28;20127;-61
2023/04/25 00:11:36;;;;;;;12.93;9.63;;;;;;;11.29;87.01;95724.28;5074253;28;20053;-62
2023/04/25 00:14:04;;;;;;;9.68;8.35;;;;;;;11.32;87.56;95716.25;5074276;28;20161;-61
2023/04/25 00:16:33;;;;;;;13.30;9.65;;;;;;;11.29;87.94;95708.56;5074184;28;20044;-62
2023/04/25 00:19:01;;;;;;;14.90;10.68;;;;;;;11.16;89.85;95698.75;5074108;28;20052;-63
2023/04/25 00:21:28;;;;;;;12.25;9.63;;;;;;;11.13;90.87;95693.69;5074049;28;20494;-61
2023/04/25 00:23:56;;;;;;;13.32;9.93;;;;;;;11.06;91.27;95682.72;5073998;28;20140;-62
2023/04/25 00:26:23;;;;;;;13.18;10.35;;;;;;;11.06;92.42;95682.72;5074193;28;20059;-63
2023/04/25 00:28:52;;;;;;;10.00;9.02;;;;;;;11.08;92.23;95682.63;5073966;28;20059;-61
2023/04/25 00:31:19;;;;;;;12.00;10.50;;;;;;;11.12;92.64;95684.16;5073866;28;20040;-63
2023/04/25 00:33:46;;;;;;;14.68;9.60;;;;;;;11.21;91.98;95688.03;5073886;28;20040;-61
2023/04/25 00:36:14;;;;;;;13.73;9.82;;;;;;;11.28;91.48;95684.16;5073874;28;20048;-60
2023/04/25 00:38:42;;;;;;;14.35;9.18;;;;;;;11.27;91.33;95679.84;5073708;28;20490;-64
2023/04/25 00:41:09;;;;;;;12.13;8.82;;;;;;;11.21;90.59;95675.81;5073435;28;20091;-63
2023/04/25 00:43:38;;;;;;;9.48;7.88;;;;;;;11.09;89.54;95679.06;5073120;28;20079;-62
2023/04/25 00:46:07;;;;;;;17.42;8.27;;;;;;;11.03;89.52;95677.63;5073573;28;20553;-59
2023/04/25 00:48:34;;;;;;;10.25;8.75;;;;;;;11.02;89.71;95669.88;5073621;28;20051;-61
2023/04/25 00:51:01;;;;;;;9.77;8.35;;;;;;;10.97;89.12;95676.19;5073542;28;20101;-63
2023/04/25 00:53:29;;;;;;;8.40;7.55;;;;;;;10.91;89.16;95673.91;5073405;28;20064;-63
2023/04/25 00:55:56;;;;;;;8.57;7.60;;;;;;;10.89;88.86;95669.69;5073490;28;20044;-62
2023/04/25 00:58:24;;;;;;;8.68;5.93;;;;;;;10.85;88.14;95669.00;5073536;28;20044;-63
2023/04/25 01:00:52;;;;;;;7.90;5.80;;;;;;;10.81;87.98;95662.25;5073295;28;20059;-62
2023/04/25 01:03:21;;;;;;;7.15;5.47;;;;;;;10.76;87.60;95656.41;5073309;28;20045;-62
2023/04/25 01:05:49;;;;;;;9.63;5.75;;;;;;;10.74;87.42;95654.72;5073315;28;20144;-61
2023/04/25 01:08:16;;;;;;;8.60;5.57;;;;;;;10.75;87.43;95645.09;5073276;28;20051;-61
2023/04/25 01:10:43;;;;;;;4.45;4.05;;;;;;;10.68;88.09;95651.56;5073341;28;20076;-64
2023/04/25 01:13:11;;;;;;;5.65;4.97;;;;;;;10.60;88.74;95647.59;5073277;28;20068;-63
2023/04/25 01:15:38;;;;;;;6.43;5.82;;;;;;;10.56;89.75;95648.69;5073136;28;20044;-62
2023/04/25 01:18:07;;;;;;;8.07;6.88;;;;;;;10.34;91.39;95641.94;5073107;28;20044;-63
2023/04/25 01:20:36;;;;;;;6.85;6.20;;;;;;;10.30;92.19;95648.22;5073137;28;20095;-63
2023/04/25 01:23:05;;;;;;;10.38;6.72;;;;;;;10.24;92.10;95644.16;5073118;28;20048;-61
2023/04/25 01:25:32;;;;;;;8.00;6.07;;;;;;;10.26;92.20;95648.47;5072958;28;20049;-61
2023/04/25 01:27:59;;;;;;;9.93;6.25;;;;;;;10.24;91.69;95651.16;5073088;28;20088;-60
2023/04/25 01:30:28;;;;;;;6.63;5.88;;;;;;;10.24;91.36;95645.94;5073197;28;20403;-64
2023/04/25 01:32:56;;;;;;;8.20;6.70;;;;;;;10.25;91.49;95642.38;5072994;28;20048;-62
2023/04/25 01:35:25;;;;;;;6.18;5.15;;;;;;;10.31;91.03;95636.84;5073089;28;20403;-62
2023/04/25 01:37:52;;;;;;;5.43;4.80;;;;;;;10.32;89.82;95629.84;5072979;28;20056;-63
2023/04/25 01:40:22;;;;;;;4.30;3.90;;;;;;;10.28;88.02;95630.94;5072944;28;20045;-64
2023/04/25 01:42:50;;;;;;;3.17;2.47;;;;;;;10.23;87.31;95625.94;5072657;28;20058;-60
2023/04/25 01:45:17;;;;;;;5.00;3.88;;;;;;;10.19;86.49;95633.09;5072862;28;20048;-64
2023/04/25 01:47:48;;;;;;;6.30;3.88;;;;;;;10.15;86.13;95635.94;5072912;28;20044;-63
2023/04/25 01:50:17;;;;;;;6.10;3.45;;;;;;;10.00;85.74;95633.19;5072912;28;20486;-61
2023/04/25 01:52:45;;;;;;;3.95;3.45;;;;;;;9.96;85.23;95631.63;5072847;28;20131;-60
2023/04/25 01:55:12;;;;;;;4.80;2.95;;;;;;;9.93;84.82;95631.81;5075212;28;20131;-64
2023/04/25 01:57:41;;;;;;;3.35;2.67;;;;;;;9.85;84.42;95627.78;5076895;28;20044;-63
2023/04/25 02:00:10;;;;;;;5.40;3.13;;;;;;;9.80;84.23;95626.31;5076756;28;20052;-62
2023/04/25 02:02:37;;;;;;;5.75;2.75;;;;;;;9.81;84.11;95626.25;5076722;28;20131;-61
2023/04/25 02:05:05;;;;;;;3.03;2.50;;;;;;;9.78;84.16;95615.13;5076671;28;20052;-62
2023/04/25 02:07:33;;;;;;;4.80;2.80;;;;;;;9.72;83.46;95616.25;5076678;28;20486;-64
2023/04/25 02:10:00;;;;;;;8.25;3.00;;;;;;;9.67;83.47;95608.66;5076658;28;20053;-64
2023/04/25 02:12:28;;;;;;;3.20;2.90;;;;;;;9.52;84.19;95618.09;5076580;28;20056;-65
2023/04/25 02:14:56;;;;;;;3.25;2.95;;;;;;;9.42;84.93;95615.06;5076581;28;20079;-61
2023/04/25 02:17:23;;;;;;;3.25;2.85;;;;;;;9.33;86.19;95618.97;5076404;28;20044;-62
2023/04/25 02:19:50;;;;;;;3.88;2.80;;;;;;;9.21;87.33;95612.56;5076493;28;20080;-64
2023/04/25 02:22:17;;;;;;;3.92;2.90;;;;;;;9.12;87.05;95613.00;5076338;28;20044;-61
2023/04/25 02:24:45;;;;;;;5.88;3.80;;;;;;;9.13;86.50;95616.47;5076238;28;20131;-62
2023/04/25 02:27:12;;;;;;;7.13;3.90;;;;;;;9.12;86.16;95612.16;5076253;28;20098;-63
2023/04/25 02:29:39;;;;;;;5.75;4.13;;;;;;;9.12;86.48;95613.00;5076183;28;20049;-64
2023/04/25 02:32:08;;;;;;;3.88;3.50;;;;;;;9.16;86.47;95617.19;5076217;28;20498;-65
2023/04/25 02:34:35;;;;;;;3.15;2.88;;;;;;;9.22;86.21;95621.25;5076176;28;20044;-62
2023/04/25 02:37:02;;;;;;;3.10;2.65;;;;;;;9.25;86.12;95622.88;5076112;28;20044;-64
2023/04/25 02:39:29;;;;;;;4.70;3.25;;;;;;;9.26;86.09;95616.72;5075989;28;20059;-62
2023/04/25 02:41:56;;;;;;;19.00;17.15;;;;;;;9.19;86.07;95613.56;5075783;28;20045;-60
2023/04/25 02:44:23;;;;;;;4.43;4.03;;;;;;;9.17;86.26;95600.59;5075872;28;20502;-64
2023/04/25 02:46:51;;;;;;;4.97;3.72;;;;;;;9.16;86.20;95608.50;5075859;28;20045;-61
2023/04/25 02:49:19;;;;;;;5.13;3.67;;;;;;;9.17;85.96;95608.41;5075843;28;20082;-63
2023/04/25 02:51:47;;;;;;;5.50;3.80;;;;;;;9.17;86.14;95616.25;5075825;28;20044;-64
2023/04/25 02:54:14;;;;;;;3.65;3.08;;;;;;;9.18;86.10;95623.16;5075805;28;20098;-63
2023/04/25 02:56:41;;;;;;;4.63;4.18;;;;;;;9.23;86.48;95617.72;5075778;28;20084;-64
2023/04/25 02:59:08;;;;;;;6.80;6.18;;;;;;;9.25;87.02;95628.09;5075867;28;20163;-63
2023/04/25 03:01:36;;;;;;;8.98;7.03;;;;;;;9.22;87.01;95626.47;5075738;28;20401;-61
2023/04/25 03:04:03;;;;;;;6.25;5.65;;;;;;;9.24;87.35;95629.84;5075737;28;20052;-63
2023/04/25 03:06:32;;;;;;;3.70;3.38;;;;;;;9.21;87.36;95632.59;5075098;28;20406;-62
2023/04/25 03:08:59;;;;;;;3.10;2.90;;;;;;;9.19;87.15;95629.22;5075547;28;20048;-61
2023/04/25 03:11:26;;;;;;;3.38;3.08;;;;;;;9.19;87.19;95631.84;5075536;28;20045;-65
2023/04/25 03:13:54;;;;;;;5.90;3.88;;;;;;;9.16;86.57;95632.84;5075539;28;20055;-61
2023/04/25 03:16:22;;;;;;;4.90;3.92;;;;;;;9.13;86.63;95635.59;5075420;28;20040;-61
2023/04/25 03:18:50;;;;;;;4.30;3.90;;;;;;;9.12;87.29;95635.66;5075341;28;20490;-64
2023/04/25 03:21:17;;;;;;;6.00;5.50;;;;;;;9.11;88.02;95632.19;5075352;28;20071;-60
2023/04/25 03:23:46;;;;;;;8.40;5.18;;;;;;;9.14;88.63;95637.25;5075275;28;20055;-60
2023/04/25 03:26:13;;;;;;;4.78;4.38;;;;;;;9.19;88.73;95632.69;5075164;28;20049;-61
2023/04/25 03:28:40;;;;;;;5.90;5.00;;;;;;;9.26;88.73;95635.00;5075287;28;20076;-62
2023/04/25 03:31:08;;;;;;;6.68;4.70;;;;;;;9.30;89.16;95636.56;5075188;28;20052;-65
2023/04/25 03:33:35;;;;;;;6.65;5.95;;;;;;;9.35;89.13;95631.94;5075161;28;20456;-64
2023/04/25 03:36:02;;;;;;;5.47;4.65;;;;;;;9.42;89.77;95640.34;5074995;28;20051;-62
2023/04/25 03:38:34;;;;;;;4.72;3.60;;;;;;;9.44;89.20;95641.09;5074952;28;20075;-61
2023/04/25 03:41:04;;;;;;;7.25;3.88;;;;;;;9.42;88.41;95642.97;5074947;28;20494;-63
2023/04/25 03:43:31;;;;;;;5.75;4.53;;;;;;;9.42;88.21;95638.56;5074582;28;20049;-60
2023/04/25 03:45:59;;;;;;;7.10;4.55;;;;;;;9.45;88.37;95640.19;5074687;28;20053;-61
2023/04/25 03:48:26;;;;;;;8.02;3.70;;;;;;;9.45;88.34;95627.97;5074797;28;20086;-61
2023/04/25 03:50:54;;;;;;;6.60;4.25;;;;;;;9.52;88.78;95628.53;5074794;28;20506;-61
2023/04/25 03:53:21;;;;;;;4.90;3.90;;;;;;;9.56;88.66;95635.31;5074689;28;20045;-63
2023/04/25 03:55:49;;;;;;;5.32;4.28;;;;;;;9.60;88.65;95633.38;5074767;28;20052;-62
2023/04/25 03:58:19;;;;;;;4.22;3.88;;;;;;;9.63;89.00;95633.22;5074716;28;20048;-62
2023/04/25 04:00:47;;;;;;;4.82;4.32;;;;;;;9.62;88.74;95628.94;5074546;28;20040;-62
2023/04/25 04:03:14;;;;;;;5.28;4.72;;;;;;;9.63;88.69;95628.00;5074552;28;20135;-64
2023/04/25 04:05:42;;;;;;;4.82;4.32;;;;;;;9.60;89.00;95618.56;5074240;28;20091;-64
2023/04/25 04:08:11;;;;;;;7.47;4.82;;;;;;;9.67;89.00;95618.25;5074347;28;20044;-62
2023/04/25 04:10:38;;;;;;;6.35;5.78;;;;;;;9.64;89.15;95623.63;5074297;28;20052;-61
2023/04/25 04:13:06;;;;;;;5.22;4.72;;;;;;;9.68;89.10;95625.16;5074224;28;20510;-65
2023/04/25 04:15:34;;;;;;;6.70;4.43;;;;;;;9.67;89.67;95629.56;5074239;28;20048;-61
2023/04/25 04:18:03;;;;;;;5.38;4.88;;;;;;;9.66;89.89;95627.03;5073420;28;20099;-62
2023/04/25 04:20:31;;;;;;;6.68;5.82;;;;;;;9.64;89.89;95628.84;5074024;28;20416;-60
2023/04/25 04:22:58;;;;;;;7.78;6.88;;;;;;;9.67;90.79;95628.72;5074077;28;20054;-63
2023/04/25 04:25:26;;;;;;;9.02;7.32;;;;;;;9.57;91.83;95617.88;5073992;28;20057;-60
2023/04/25 04:27:54;;;;;;;10.15;7.18;;;;;;;9.68;92.29;95631.25;5073878;28;20079;-62
2023/04/25 04:30:25;;;;;;;16.73;7.55;;;;;;;9.76;92.51;95630.03;5073997;28;20041;-63
2023/04/25 04:32:54;;;;;;;8.77;7.88;;;;;;;9.83;92.84;95626.19;5073879;28;20049;-62
2023/04/25 04:35:24;;;;;;;11.98;7.10;;;;;;;9.93;92.93;95629.19;5073833;28;20048;-63
2023/04/25 04:37:51;;;;;;;8.80;6.63;;;;;;;9.98;92.77;95617.59;5073988;28;20044;-61
2023/04/25 04:40:20;;;;;;;11.57;7.50;;;;;;;10.05;92.73;95619.91;5073749;28;20048;-61
2023/04/25 04:42:47;;;;;;;10.10;7.35;;;;;;;10.10;92.83;95618.75;5073483;28;20127;-59
2023/04/25 04:45:16;;;;;;;7.25;6.53;;;;;;;10.14;92.61;95613.34;5073580;28;20486;-61
2023/04/25 04:47:45;;;;;;;9.35;6.25;;;;;;;10.17;92.17;95611.41;5073703;28;20135;-62
2023/04/25 04:50:18;;;;;;;7.32;6.03;;;;;;;10.26;91.79;95615.31;5073564;28;20122;-65
2023/04/25 04:52:49;;;;;;;9.02;6.70;;;;;;;10.28;91.48;95610.88;5073559;28;20123;-62
2023/04/25 04:55:17;;;;;;;7.95;6.10;;;;;;;10.34;91.06;95601.84;5073527;28;20543;-63
2023/04/25 04:57:50;;;;;;;9.45;6.72;;;;;;;10.40;91.27;95603.31;5073500;28;20070;-64
2023/04/25 05:00:18;;;;;;;8.25;7.30;;;;;;;10.38;91.05;95606.00;5073444;28;20076;-62
2023/04/25 05:02:46;;;;;;;9.63;7.45;;;;;;;10.41;91.40;95611.06;5073362;28;20076;-65
2023/04/25 05:05:16;;;;;;;10.75;7.88;;;;;;;10.52;91.55;95604.47;5073297;28;20059;-62
2023/04/25 05:07:43;;;;;;;8.20;7.40;;;;;;;10.61;91.67;95594.38;5073325;28;20044;-64
2023/04/25 05:10:17;;;;;;;10.48;7.65;;;;;;;10.66;92.12;95590.66;5073233;28;20128;-61
2023/04/25 05:12:44;;;;;;;9.90;6.88;;;;;;;10.73;92.27;95592.88;5072985;28;20056;-64
2023/04/25 05:15:13;;;;;;;9.00;8.15;;;;;;;10.84;92.18;95599.28;5073002;28;20147;-61
2023/04/25 05:17:49;;;;;;;7.10;6.50;;;;;;;10.89;92.16;95601.66;5073178;28;20044;-62
2023/04/25 05:20:20;;;;;;;8.75;7.10;;;;;;;10.87;92.76;95607.81;5073175;28;20117;-60
2023/04/25 05:22:48;;;;;;;11.70;8.88;;;;;;;10.88;92.39;95606.03;5073272;28;20055;-63
2023/04/25 05:25:16;;;;;;;11.57;9.55;;;;;;;10.89;92.54;95610.34;5073089;28;20045;-61
2023/04/25 05:27:45;;;;;;;9.75;8.75;;;;;;;10.87;92.14;95607.81;5073011;28;20045;-64
2023/04/25 05:30:15;;;;;;;9.57;7.88;;;;;;;10.92;92.10;95609.31;5073001;28;20504;-60
2023/04/25 05:32:43;;;;;;;8.90;8.00;;;;;;;10.93;91.63;95597.94;5072913;28;20050;-64
2023/04/25 05:35:10;;;;;;;9.73;8.27;;;;;;;10.96;91.18;95603.00;5073021;28;20048;-65
2023/04/25 05:37:39;;;;;;;9.27;8.27;;;;;;;10.98;91.83;95607.22;5072964;28;20048;-63
2023/04/25 05:40:08;;;;;;;10.70;9.20;;;;;;;11.00;92.65;95604.53;5072930;28;20044;-63
2023/04/25 05:42:35;;;;;;;10.73;9.00;;;;;;;11.08;93.44;95612.78;5072740;28;20044;-65
2023/04/25 05:45:04;;;;;;;11.52;9.00;;;;;;;11.21;93.79;95606.88;5072760;28;20048;-63
2023/04/25 05:47:32;;;;;;;10.48;7.72;;;;;;;11.42;92.61;95615.31;5072931;28;20048;-61
2023/04/25 05:49:59;;;;;;;8.10;7.22;;;;;;;11.59;91.51;95614.34;5072882;28;20486;-63
2023/04/25 05:52:26;;;;;;;9.80;7.30;;;;;;;11.73;90.21;95617.97;5073077;28;20495;-61
2023/04/25 05:54:55;;;;;;;8.63;7.75;;;;;;;11.80;89.56;95628.94;5072827;28;20053;-64
2023/04/25 05:57:24;;;;;;;7.70;7.00;;;;;;;11.88;88.82;95617.09;5072747;28;20051;-65
2023/04/25 05:59:52;;;;;;;7.35;6.47;;;;;;;11.95;88.88;95611.50;5072824;28;20441;-63
2023/04/25 06:02:20;;;;;;;8.60;6.95;;;;;;;12.01;88.09;95617.22;5072725;28;20063;-63
2023/04/25 06:04:47;;;;;;;7.15;6.20;;;;;;;12.08;86.29;95614.28;5072773;28;20490;-63
2023/04/25 06:07:15;;;;;;;7.32;6.15;;;;;;;12.10;85.57;95609.78;5072609;28;20059;-62
2023/04/25 06:09:42;;;;;;;6.60;5.80;;;;;;;12.09;85.59;95608.94;5072686;28;20123;-63
2023/04/25 06:12:11;;;;;;;9.93;7.30;;;;;;;12.12;85.72;95613.16;5072655;28;20052;-64
2023/04/25 06:14:38;;;;;;;6.70;6.03;;;;;;;12.14;85.21;95624.41;5072665;28;20110;-63
2023/04/25 06:17:08;;;;;;;7.65;6.00;;;;;;;12.19;84.87;95609.22;5072574;28;20095;-60
2023/04/25 06:19:36;;;;;;;7.22;6.53;;;;;;;12.30;85.02;95620.84;5072498;28;20139;-61
2023/04/25 06:22:04;;;;;;;7.13;6.22;;;;;;;12.37;85.21;95617.78;5072491;28;20044;-64
2023/04/25 06:24:32;;;;;;;6.65;6.00;;;;;;;12.48;85.07;95619.75;5072605;28;20055;-61
2023/04/25 06:26:59;;;;;;;10.45;6.07;;;;;;;12.60;84.64;95625.19;5072463;28;20048;-63
2023/04/25 06:29:28;;;;;;;7.72;6.93;;;;;;;12.73;83.46;95630.53;5072513;28;20478;-63
2023/04/25 06:31:56;;;;;;;10.38;7.22;;;;;;;12.73;79.59;95620.88;5072452;28;20056;-63
2023/04/25 06:34:24;;;;;;;9.50;6.53;;;;;;;12.79;78.39;95621.44;5072555;28;20049;-63
2023/04/25 06:36:51;;;;;;;11.63;7.25;;;;;;;12.85;78.88;95615.81;5072409;28;20460;-63
2023/04/25 06:39:19;;;;;;;9.23;7.03;;;;;;;12.94;79.17;95619.66;5072417;28;20045;-63
2023/04/25 06:41:46;;;;;;;7.97;6.43;;;;;;;12.98;77.71;95619.34;5075156;28;20587;-61
2023/04/25 06:44:14;;;;;;;10.65;6.43;;;;;;;13.05;76.31;95621.59;5076019;28;20406;-62
2023/04/25 06:46:42;;;;;;;8.10;5.90;;;;;;;13.17;75.66;95618.22;5075887;28;20053;-61
2023/04/25 06:49:09;;;;;;;7.28;5.60;;;;;;;13.35;75.21;95624.06;5075956;28;20548;-63
2023/04/25 06:51:37;;;;;;;6.93;5.43;;;;;;;13.50;72.67;95626.69;5075821;28;20139;-64
2023/04/25 06:54:05;;;;;;;10.43;5.35;;;;;;;13.63;73.97;95629.34;5075830;28;20079;-61
2023/04/25 06:56:32;;;;;;;7.50;6.78;;;;;;;13.77;73.70;95624.06;5075912;28;20118;-63
2023/04/25 06:59:00;;;;;;;5.65;5.15;;;;;;;13.86;71.58;95621.75;5075745;28;20056;-62
2023/04/25 07:01:27;;;;;;;8.20;4.32;;;;;;;13.97;71.01;95618.44;5075691;28;20053;-63
2023/04/25 07:03:56;;;;;;;8.43;5.30;;;;;;;14.10;69.36;95610.56;5075559;28;20048;-61
2023/04/25 07:06:23;;;;;;;5.15;4.40;;;;;;;14.21;70.08;95610.66;5075500;28;20052;-62
2023/04/25 07:08:51;;;;;;;6.18;4.50;;;;;;;14.30;69.37;95614.47;5075599;28;20487;-64
2023/04/25 07:11:18;;;;;;;5.30;3.78;;;;;;;14.42;69.19;95601.44;5075462;28;20102;-61
2023/04/25 07:13:46;;;;;;;5.00;4.07;;;;;;;14.48;69.75;95601.84;5075551;28;20045;-61
2023/04/25 07:16:13;;;;;;;5.63;4.10;;;;;;;14.48;69.29;95606.28;5075317;28;20080;-63
2023/04/25 07:18:40;;;;;;;6.28;3.70;;;;;;;14.48;66.89;95604.47;5075521;28;20518;-61
2023/04/25 07:21:09;;;;;;;4.20;3.47;;;;;;;14.58;67.12;95599.44;5075493;28;20044;-60
2023/04/25 07:23:37;;;;;;;4.28;2.95;;;;;;;14.66;68.25;95605.00;5075401;28;20051;-62
2023/04/25 07:26:04;;;;;;;7.53;2.97;;;;;;;14.68;66.91;95604.03;5075308;28;20528;-60
2023/04/25 07:28:31;;;;;;;5.78;3.38;;;;;;;14.75;67.55;95605.31;5075302;28;20474;-61
2023/04/25 07:30:58;;;;;;;3.10;2.83;;;;;;;14.79;66.35;95598.91;5075097;28;20509;-65
2023/04/25 07:33:28;;;;;;;4.53;3.42;;;;;;;14.82;66.66;95603.97;5075039;28;20106;-60
2023/04/25 07:35:56;;;;;;;4.53;3.78;;;;;;;14.84;66.51;95591.53;5075150;28;20543;-60
2023/04/25 07:38:24;;;;;;;4.97;4.10;;;;;;;14.87;67.60;95590.50;5075032;28;20060;-63
2023/04/25 07:40:51;;;;;;;4.75;4.25;;;;;;;14.84;65.79;95594.16;5075032;28;20052;-62
2023/04/25 07:43:19;;;;;;;5.53;4.80;;;;;;;14.91;65.97;95594.56;5074835;28;20055;-62
2023/04/25 07:45:46;;;;;;;4.50;3.63;;;;;;;14.95;64.51;95590.78;5074893;28;20090;-61
2023/04/25 07:48:18;;;;;;;4.85;4.05;;;;;;;15.13;64.17;95586.00;5074860;28;20064;-61
2023/04/25 07:50:45;;;;;;;4.80;3.30;;;;;;;15.24;64.44;95581.75;5074851;28;20056;-65
2023/04/25 07:53:12;;;;;;;4.13;3.10;;;;;;;15.26;63.08;95578.03;5073420;28;20056;-62
2023/04/25 07:55:41;;;;;;;4.90;2.75;;;;;;;15.63;64.66;95581.59;5074748;28;20049;-60
2023/04/25 07:58:08;;;;;;;2.85;2.22;;;;;;;15.87;64.72;95576.25;5074797;28;20057;-62
2023/04/25 08:00:36;;;;;;;2.80;2.30;;;;;;;16.07;62.33;95586.31;5074657;28;20049;-64
2023/04/25 08:03:03;;;;;;;2.67;2.47;;;;;;;16.07;61.19;95587.16;5074562;28;20056;-61
2023/04/25 08:05:31;;;;;;;3.05;2.40;;;;;;;16.35;61.52;95590.34;5074491;28;20136;-64
2023/04/25 08:07:59;;;;;;;3.05;2.20;;;;;;;16.68;60.02;95583.38;5074323;28;20092;-64
2023/04/25 08:10:26;;;;;;;2.95;2.20;;;;;;;17.08;58.87;95586.53;5074438;28;20490;-64
2023/04/25 08:12:54;;;;;;;2.53;2.30;;;;;;;17.61;57.48;95584.94;5074425;28;20049;-62
2023/04/25 08:15:22;;;;;;;3.67;2.10;;;;;;;18.02;56.24;95584.31;5074307;28;20051;-64
2023/04/25 08:17:49;;;;;;;2.15;1.85;;;;;;;18.50;55.73;95590.06;5074153;28;20127;-64
2023/04/25 08:20:16;;;;;;;2.55;1.98;;;;;;;18.91;55.99;95579.53;5074172;28;20131;-62
2023/04/25 08:22:44;;;;;;;2.20;1.80;;;;;;;19.06;53.17;95585.31;5074203;28;20044;-61
2023/04/25 08:25:11;;;;;;;2.30;2.10;;;;;;;19.38;52.41;95581.63;5074109;28;20044;-61
2023/04/25 08:27:38;;;;;;;2.75;2.45;;;;;;;19.54;51.66;95581.09;5074024;28;20049;-62
2023/04/25 08:30:09;;;;;;;4.35;2.17;;;;;;;19.79;52.18;95581.56;5074054;28;20083;-64
2023/04/25 08:32:38;;;;;;;;;;;;;;;19.98;51.94;95579.03;5074366;28;20048;-62
2023/04/25 08:35:06;;;;;;;6.93;2.40;;;;;;;20.00;52.28;95577.91;5073801;28;20366;-63
2023/04/25 08:37:34;;;;;;;3.67;2.03;;;;;;;19.92;49.65;95573.31;5073788;28;20048;-61
2023/04/25 08:40:02;;;;;;;4.82;2.13;;;;;;;19.73;50.97;95576.78;5073736;28;20512;-59
2023/04/25 08:42:32;;;;;;;3.85;1.98;;;;;;;19.56;51.17;95576.50;5073577;28;20584;-62
2023/04/25 08:45:02;;;;;;;3.63;2.40;;;;;;;19.45;51.26;95569.50;5073704;28;20111;-65
2023/04/25 08:47:33;;;;;;;7.30;1.85;;;;;;;19.53;51.00;95567.97;5073651;28;20058;-62
2023/04/25 08:50:03;;;;;;;4.30;2.30;;;;;;;19.70;51.21;95561.16;5073587;28;20414;-60
2023/04/25 08:52:37;;;;;;;2.10;1.90;;;;;;;19.81;49.90;95558.34;5073653;28;20113;-60
2023/04/25 08:55:06;;;;;;;5.35;2.30;;;;;;;20.15;49.07;95565.06;5073450;28;20419;-62
2023/04/25 08:57:34;;;;;;;3.22;1.95;;;;;;;20.22;50.00;95570.63;5073401;28;20079;-60
2023/04/25 09:00:03;;;;;;;2.05;1.70;;;;;;;20.40;51.22;95568.09;5073526;28;20051;-62
2023/04/25 09:02:32;;;;;;;1.70;1.60;;;;;;;20.74;50.97;95568.56;5073439;28;20040;-62
2023/04/25 09:05:00;;;;;;;4.05;1.70;;;;;;;20.96;47.11;95562.06;5073192;28;20051;-62
2023/04/25 09:07:28;;;;;;;4.35;2.05;;;;;;;21.17;49.76;95567.13;5073296;28;20044;-61
2023/04/25 09:09:55;;;;;;;2.08;1.83;;;;;;;21.36;48.32;95567.16;5073290;28;20048;-64
2023/04/25 09:12:23;;;;;;;3.42;1.60;;;;;;;21.49;48.48;95570.28;5073323;28;20151;-60
2023/04/25 09:15:05;;;;;;;2.55;1.67;;;;;;;21.68;46.03;95563.16;5073284;28;20094;-61
2023/04/25 09:17:34;;;;;;;2.25;2.03;;;;;;;21.64;45.54;95554.63;5073204;28;20490;-62
2023/04/25 09:20:09;;;;;;;3.33;2.13;;;;;;;21.43;48.54;95555.75;5073162;28;20044;-64
2023/04/25 09:22:37;;;;;;;3.15;1.50;;;;;;;21.11;45.90;95557.09;5073158;28;20044;-64
2023/04/25 09:25:09;;;;;;;2.05;1.70;;;;;;;20.70;46.52;95550.25;5073245;28;20048;-67
2023/04/25 09:27:36;;;;;;;3.60;1.70;;;;;;;20.65;50.30;95541.88;5073100;28;20132;-60
2023/04/25 09:30:04;;;;;;;1.75;1.65;;;;;;;21.19;48.69;95543.06;5073069;28;20052;-62
2023/04/25 09:32:31;;;;;;;4.25;1.95;;;;;;;21.45;47.02;95547.63;5072985;28;20087;-63
2023/04/25 09:35:00;;;;;;;1.58;1.40;;;;;;;21.57;47.27;95535.78;5073108;28;20055;-59
2023/04/25 09:37:28;;;;;;;2.08;1.40;;;;;;;21.55;43.85;95531.63;5072971;28;20044;-63
2023/04/25 09:39:58;;;;;;;5.43;1.50;;;;;;;21.17;44.91;95537.91;5073065;28;20452;-63
2023/04/25 09:42:28;;;;;;;5.40;1.95;;;;;;;20.57;47.14;95532.00;5072772;28;20059;-61
2023/04/25 09:44:57;;;;;;;4.33;2.60;;;;;;;20.12;48.54;95530.84;5072880;28;20137;-61
2023/04/25 09:47:25;;;;;;;2.60;2.40;;;;;;;19.90;49.80;95527.47;5072865;28;20063;-62
2023/04/25 09:49:53;;;;;;;2.50;2.30;;;;;;;19.69;49.53;95525.00;5073010;28;20049;-61
2023/04/25 09:52:23;;;;;;;4.97;3.42;;;;;;;19.52;51.52;95524.72;5072983;28;20477;-61
2023/04/25 09:54:51;;;;;;;3.20;2.95;;;;;;;19.28;52.23;95525.97;5072872;28;20059;-64
2023/04/25 09:57:19;;;;;;;3.45;3.15;;;;;;;19.12;52.63;95523.00;5072744;28;20072;-61
2023/04/25 09:59:47;;;;;;;6.72;3.22;;;;;;;19.09;52.98;95515.31;5072811;28;20052;-62
2023/04/25 10:02:16;;;;;;;8.20;3.60;;;;;;;19.15;51.99;95509.47;5072734;28;20059;-62
2023/04/25 10:04:46;;;;;;;3.90;2.95;;;;;;;19.21;51.52;95513.38;5072703;28;20127;-62
2023/04/25 10:07:13;;;;;;;8.75;3.03;;;;;;;19.23;52.32;95506.97;5072628;28;20048;-60
2023/04/25 10:09:45;;;;;;;3.58;2.95;;;;;;;19.15;54.11;95507.66;5072687;28;20040;-62
2023/04/25 10:12:13;;;;;;;5.88;3.08;;;;;;;19.01;53.71;95502.72;5072637;28;20051;-61
2023/04/25 10:14:41;;;;;;;4.30;3.08;;;;;;;18.97;53.82;95493.38;5072729;28;20479;-62
2023/04/25 10:17:11;;;;;;;4.88;2.95;;;;;;;18.84;54.14;95485.69;5076400;28;20055;-59
2023/04/25 10:19:38;;;;;;;4.65;3.30;;;;;;;18.87;55.51;95488.06;5076532;28;20406;-62
2023/04/25 10:22:10;;;;;;;6.30;3.13;;;;;;;18.91;58.01;95481.50;5076472;28;20087;-63
2023/04/25 10:24:39;;;;;;;4.32;2.55;;;;;;;19.01;60.15;95490.31;5076457;28;20619;-64
2023/04/25 10:27:09;;;;;;;1.80;1.70;;;;;;;18.81;61.05;95478.81;5076263;28;20087;-63
2023/04/25 10:29:43;;;;;;;5.88;2.28;;;;;;;18.87;62.79;95465.03;5076301;28;20053;-63
2023/04/25 10:32:10;;;;;;;2.38;2.17;;;;;;;18.75;59.67;95474.91;5076209;28;20079;-64
2023/04/25 10:34:42;;;;;;;4.70;2.20;;;;;;;18.62;61.98;95467.22;5076191;28;20045;-63
2023/04/25 10:37:13;;;;;;;4.53;2.53;;;;;;;18.33;60.46;95459.19;5076096;28;20048;-63
2023/04/25 10:39:42;;;;;;;3.88;3.00;;;;;;;18.03;63.24;95464.31;5076155;28;20543;-64
2023/04/25 10:42:10;;;;;;;7.90;3.20;;;;;;;17.59;64.50;95457.34;5075823;28;20049;-61
2023/04/25 10:44:39;;;;;;;6.05;3.28;;;;;;;17.55;64.84;95448.84;5076056;28;20049;-62
2023/04/25 10:47:09;;;;;;;3.03;2.70;;;;;;;17.36;62.45;95464.53;5075997;28;20041;-60
2023/04/25 10:49:37;;;;;;;2.95;2.58;;;;;;;17.03;62.82;95460.06;5075961;28;20133;-61
2023/04/25 10:52:16;;;;;;;3.35;2.75;;;;;;;17.23;61.42;95465.56;5075931;28;20044;-61
2023/04/25 10:54:47;;;;;;;2.90;2.70;;;;;;;17.18;61.15;95471.22;5075818;28;20449;-60
2023/04/25 10:57:33;;;;;;;3.50;2.83;;;;;;;17.00;62.60;95467.41;5075776;28;20539;-61
2023/04/25 11:00:10;;;;;;;5.13;2.95;;;;;;;16.89;63.41;95458.53;5075876;28;20452;-61
2023/04/25 11:02:46;;;;;;;5.20;3.03;;;;;;;17.14;63.95;95463.69;5075701;28;20098;-63
2023/04/25 11:05:30;;;;;;;7.93;2.88;;;;;;;17.32;62.56;95460.47;5075749;28;20044;-62
2023/04/25 11:07:59;;;;;;;4.97;3.17;;;;;;;17.78;66.59;95453.16;5075726;28;20053;-61
2023/04/25 11:10:28;;;;;;;4.40;2.85;;;;;;;18.21;61.66;95451.31;5075598;28;20105;-62
2023/04/25 11:12:57;;;;;;;7.15;3.03;;;;;;;18.77;64.86;95433.25;5075651;28;20048;-60
2023/04/25 11:15:26;;;;;;;3.30;1.95;;;;;;;19.35;60.61;95443.22;5075506;28;20049;-62
2023/04/25 11:17:54;;;;;;;1.40;1.30;;;;;;;19.68;52.96;95433.97;5075457;28;20056;-61
2023/04/25 11:20:22;;;;;;;1.48;1.38;;;;;;;20.01;50.68;95446.06;5075446;28;20399;-61
2023/04/25 11:22:49;;;;;;;3.20;1.48;;;;;;;20.30;51.26;95429.22;5075326;28;20406;-65
2023/04/25 11:25:17;;;;;;;1.80;1.52;;;;;;;20.74;48.79;95435.72;5075369;28;20098;-63
2023/04/25 11:27:55;;;;;;;3.88;1.25;;;;;;;20.84;48.49;95424.03;5074924;28;20139;-62
2023/04/25 11:30:26;;;;;;;2.13;1.60;;;;;;;21.02;50.40;95427.75;5075238;28;20135;-62
2023/04/25 11:32:53;;;;;;;1.70;1.05;;;;;;;21.16;46.63;95429.88;5075173;28;20425;-62
2023/04/25 11:35:22;;;;;;;1.85;1.20;;;;;;;21.13;45.40;95424.84;5075092;28;20045;-62
2023/04/25 11:37:50;;;;;;;1.48;1.38;;;;;;;21.27;46.14;95425.31;5075078;28;20117;-65
2023/04/25 11:40:18;;;;;;;1.25;1.15;;;;;;;21.29;43.49;95429.50;5075058;28;20044;-64